Wetterdaten: Woche 04.11.13 - 10.11.13 (KW45)
Datum Zeit Temp. A. Feuchte A. Luftdruck Regen Wind Richtung Taupunkt Windchill Windben
04.11.2013 00:00 6,3 C 91 % 999,9 hPa 0,4 l/m 5,2 km/h (1 Bft) SW 4,9 C 6,0 C 12,5 km/h (2 Bft)
04.11.2013 01:00 6,5 C 91 % 999,2 hPa 0,0 l/m 4,9 km/h (1 Bft) SW 5,2 C 6,5 C 9,8 km/h (2 Bft)
04.11.2013 02:00 5,8 C 91 % 998,1 hPa 0,0 l/m 2,2 km/h (1 Bft) S 4,5 C 5,8 C 5,9 km/h (2 Bft)
04.11.2013 03:00 5,5 C 92 % 996,9 hPa 0,0 l/m 3,1 km/h (1 Bft) S 4,3 C 5,5 C 6,9 km/h (2 Bft)
04.11.2013 04:00 6,3 C 90 % 995,6 hPa 0,0 l/m 7,2 km/h (2 Bft) S-SW 4,7 C 5,4 C 14,6 km/h (3 Bft)
04.11.2013 05:00 6,6 C 89 % 994,0 hPa 0,2 l/m 4,0 km/h (1 Bft) S 4,9 C 6,6 C 9,7 km/h (2 Bft)
04.11.2013 06:00 6,3 C 91 % 992,1 hPa 1,0 l/m 4,2 km/h (1 Bft) S-SO 4,9 C 6,3 C 9,5 km/h (2 Bft)
04.11.2013 07:00 6,2 C 92 % 990,4 hPa 2,2 l/m 6,7 km/h (2 Bft) S-SO 5,0 C 5,8 C 15,6 km/h (3 Bft)
04.11.2013 08:00 6,2 C 92 % 988,3 hPa 1,2 l/m 8,1 km/h (2 Bft) S-SW 5,0 C 4,8 C 18,4 km/h (3 Bft)
04.11.2013 09:00 6,9 C 92 % 986,8 hPa 0,2 l/m 8,7 km/h (2 Bft) S 5,7 C 5,2 C 19,4 km/h (3 Bft)
04.11.2013 10:00 9,1 C 89 % 985,9 hPa 0,0 l/m 11,9 km/h (2 Bft) S-SW 7,3 C 5,7 C 25,8 km/h (4 Bft)
04.11.2013 11:00 10,9 C 84 % 984,9 hPa 0,0 l/m 15,7 km/h (3 Bft) S 8,3 C 6,0 C 31,5 km/h (5 Bft)
04.11.2013 12:00 11,8 C 82 % 983,9 hPa 0,0 l/m 15,9 km/h (3 Bft) SW 8,8 C 7,0 C 30,3 km/h (5 Bft)
04.11.2013 13:00 12,6 C 80 % 983,1 hPa 0,0 l/m 15,8 km/h (3 Bft) SW 9,2 C 8,0 C 31,1 km/h (5 Bft)
04.11.2013 14:00 12,7 C 79 % 982,2 hPa 0,0 l/m 16,8 km/h (3 Bft) S-SW 9,3 C 7,8 C 32,5 km/h (5 Bft)
04.11.2013 15:00 12,2 C 81 % 981,9 hPa 0,0 l/m 13,3 km/h (3 Bft) S 9,1 C 8,5 C 25,6 km/h (4 Bft)
04.11.2013 16:00 12,1 C 82 % 981,6 hPa 0,0 l/m 11,8 km/h (2 Bft) S-SW 9,1 C 9,0 C 22,4 km/h (4 Bft)
04.11.2013 17:00 10,2 C 89 % 983,0 hPa 1,6 l/m 6,1 km/h (2 Bft) W-SW 8,5 C 9,7 C 14,4 km/h (3 Bft)
04.11.2013 18:00 7,9 C 92 % 984,9 hPa 1,0 l/m 6,4 km/h (2 Bft) NW 6,6 C 7,4 C 14,4 km/h (3 Bft)
04.11.2013 19:00 7,0 C 92 % 986,7 hPa 0,8 l/m 4,9 km/h (1 Bft) W-NW 5,8 C 6,9 C 12,3 km/h (2 Bft)
04.11.2013 20:00 6,9 C 93 % 988,2 hPa 0,2 l/m 3,7 km/h (1 Bft) W 5,8 C 6,9 C 9,7 km/h (2 Bft)
04.11.2013 21:00 7,0 C 93 % 989,4 hPa 0,0 l/m 4,1 km/h (1 Bft) W 6,0 C 7,0 C 10,3 km/h (2 Bft)
04.11.2013 22:00 6,6 C 92 % 990,2 hPa 0,0 l/m 4,3 km/h (1 Bft) W-NW 5,4 C 6,6 C 12,5 km/h (2 Bft)
04.11.2013 23:00 5,7 C 93 % 990,8 hPa 0,0 l/m 3,8 km/h (1 Bft) SW 4,6 C 5,7 C 9,6 km/h (2 Bft)
05.11.2013 00:00 5,8 C 92 % 991,5 hPa 0,0 l/m 4,7 km/h (1 Bft) W-SW 4,7 C 5,8 C 10,8 km/h (2 Bft)
05.11.2013 01:00 6,3 C 92 % 992,1 hPa 0,0 l/m 4,9 km/h (1 Bft) SW 5,1 C 6,3 C 13,1 km/h (3 Bft)
05.11.2013 02:00 7,1 C 91 % 992,7 hPa 0,0 l/m 6,8 km/h (2 Bft) W 5,8 C 6,6 C 16,8 km/h (3 Bft)
05.11.2013 03:00 7,4 C 91 % 993,4 hPa 0,0 l/m 6,2 km/h (2 Bft) W-NW 6,0 C 7,2 C 15,4 km/h (3 Bft)
05.11.2013 04:00 7,5 C 91 % 994,3 hPa 0,0 l/m 5,6 km/h (2 Bft) SW 6,1 C 7,5 C 13,6 km/h (3 Bft)
05.11.2013 05:00 7,5 C 91 % 994,8 hPa 0,0 l/m 5,7 km/h (2 Bft) W-SW 6,1 C 7,3 C 14,2 km/h (3 Bft)
05.11.2013 06:00 7,5 C 90 % 995,5 hPa 0,0 l/m 5,7 km/h (2 Bft) W-SW 5,9 C 7,2 C 14,9 km/h (3 Bft)
05.11.2013 07:00 7,1 C 91 % 996,3 hPa 0,0 l/m 5,3 km/h (1 Bft) S 5,7 C 7,0 C 13,6 km/h (3 Bft)
05.11.2013 08:00 7,1 C 91 % 996,9 hPa 0,0 l/m 5,6 km/h (2 Bft) W 5,7 C 7,0 C 14,6 km/h (3 Bft)
05.11.2013 09:00 7,5 C 90 % 997,3 hPa 0,0 l/m 4,8 km/h (1 Bft) SW 6,0 C 7,5 C 13,0 km/h (3 Bft)
05.11.2013 10:00 8,4 C 86 % 997,4 hPa 0,0 l/m 6,9 km/h (2 Bft) S-SW 6,1 C 7,9 C 15,3 km/h (3 Bft)
05.11.2013 11:00 8,7 C 84 % 997,4 hPa 0,0 l/m 4,7 km/h (1 Bft) W-NW 6,2 C 8,7 C 11,4 km/h (2 Bft)
05.11.2013 12:00 9,0 C 83 % 997,0 hPa 0,0 l/m 6,2 km/h (2 Bft) SW 6,3 C 8,5 C 14,8 km/h (3 Bft)
05.11.2013 13:00 8,9 C 84 % 996,6 hPa 0,0 l/m 5,8 km/h (2 Bft) S 6,3 C 8,7 C 13,7 km/h (3 Bft)
05.11.2013 14:00 9,4 C 78 % 996,2 hPa 0,0 l/m 5,8 km/h (2 Bft) S-SW 5,8 C 9,3 C 13,0 km/h (3 Bft)
05.11.2013 15:00 9,2 C 78 % 995,8 hPa 0,0 l/m 5,6 km/h (2 Bft) SW 5,6 C 8,9 C 13,8 km/h (3 Bft)
05.11.2013 16:00 7,9 C 80 % 995,4 hPa 0,0 l/m 3,2 km/h (1 Bft) S-SW 4,7 C 7,9 C 7,1 km/h (2 Bft)
05.11.2013 17:00 7,0 C 82 % 994,9 hPa 0,0 l/m 3,4 km/h (1 Bft) S-SO 4,1 C 7,0 C 7,8 km/h (2 Bft)
05.11.2013 18:00 6,7 C 79 % 994,3 hPa 0,0 l/m 2,9 km/h (1 Bft) S 3,4 C 6,7 C 6,8 km/h (2 Bft)
05.11.2013 19:00 6,5 C 82 % 993,7 hPa 0,0 l/m 4,3 km/h (1 Bft) S-SW 3,7 C 6,5 C 9,8 km/h (2 Bft)
05.11.2013 20:00 6,8 C 79 % 993,4 hPa 0,0 l/m 7,9 km/h (2 Bft) S-SW 3,4 C 5,4 C 17,7 km/h (3 Bft)
05.11.2013 21:00 5,6 C 88 % 992,9 hPa 0,4 l/m 5,1 km/h (1 Bft) S 3,7 C 5,3 C 10,9 km/h (2 Bft)
05.11.2013 22:00 5,1 C 91 % 992,3 hPa 0,2 l/m 3,8 km/h (1 Bft) S 3,8 C 5,1 C 7,8 km/h (2 Bft)
05.11.2013 23:00 5,2 C 91 % 991,8 hPa 0,0 l/m 5,5 km/h (2 Bft) S 3,8 C 5,2 C 11,4 km/h (2 Bft)
06.11.2013 00:00 5,1 C 91 % 991,4 hPa 0,4 l/m 5,3 km/h (1 Bft) S 3,7 C 5,1 C 11,8 km/h (2 Bft)
06.11.2013 01:00 4,7 C 92 % 990,9 hPa 1,4 l/m 4,5 km/h (1 Bft) S-SO 3,6 C 4,7 C 10,1 km/h (2 Bft)
06.11.2013 02:00 4,8 C 93 % 990,8 hPa 2,2 l/m 4,3 km/h (1 Bft) S-SW 3,7 C 4,8 C 9,9 km/h (2 Bft)
06.11.2013 03:00 5,4 C 94 % 990,8 hPa 0,4 l/m 4,6 km/h (1 Bft) SW 4,6 C 5,4 C 11,7 km/h (2 Bft)
06.11.2013 04:00 6,5 C 94 % 991,1 hPa 0,6 l/m 5,5 km/h (2 Bft) S-SW 5,6 C 6,4 C 12,9 km/h (3 Bft)
06.11.2013 05:00 7,2 C 92 % 991,6 hPa 0,0 l/m 8,9 km/h (2 Bft) W 6,0 C 5,2 C 22,4 km/h (4 Bft)
06.11.2013 06:00 6,7 C 91 % 992,8 hPa 1,4 l/m 8,4 km/h (2 Bft) W-NW 5,3 C 4,9 C 21,5 km/h (4 Bft)
06.11.2013 07:00 6,7 C 92 % 993,9 hPa 0,6 l/m 7,0 km/h (2 Bft) W 5,4 C 6,0 C 19,6 km/h (3 Bft)
06.11.2013 08:00 6,8 C 90 % 995,2 hPa 0,0 l/m 8,0 km/h (2 Bft) W 5,3 C 5,5 C 20,5 km/h (4 Bft)
06.11.2013 09:00 7,1 C 89 % 996,7 hPa 0,0 l/m 7,1 km/h (2 Bft) W-NW 5,4 C 6,5 C 17,4 km/h (3 Bft)
06.11.2013 10:00 7,8 C 86 % 997,6 hPa 0,0 l/m 7,3 km/h (2 Bft) W 5,7 C 7,0 C 18,4 km/h (3 Bft)
06.11.2013 11:00 8,6 C 83 % 998,3 hPa 0,0 l/m 6,8 km/h (2 Bft) W 6,0 C 8,2 C 17,7 km/h (3 Bft)
06.11.2013 12:00 9,2 C 81 % 998,8 hPa 0,0 l/m 6,9 km/h (2 Bft) W 6,1 C 8,6 C 17,6 km/h (3 Bft)
06.11.2013 13:00 9,5 C 80 % 999,3 hPa 0,0 l/m 6,3 km/h (2 Bft) W 6,2 C 9,2 C 15,0 km/h (3 Bft)
06.11.2013 14:00 9,2 C 81 % 1000,0 hPa 0,0 l/m 6,4 km/h (2 Bft) W 6,1 C 8,9 C 15,3 km/h (3 Bft)
06.11.2013 15:00 8,7 C 83 % 1000,5 hPa 0,0 l/m 5,5 km/h (2 Bft) W 6,1 C 8,6 C 13,7 km/h (3 Bft)
06.11.2013 16:00 8,6 C 86 % 1001,1 hPa 0,0 l/m 4,2 km/h (1 Bft) SW 6,3 C 8,6 C 10,2 km/h (2 Bft)
06.11.2013 17:00 8,5 C 87 % 1001,6 hPa 0,0 l/m 3,4 km/h (1 Bft) S-SW 6,5 C 8,5 C 8,3 km/h (2 Bft)
06.11.2013 18:00 8,3 C 89 % 1002,0 hPa 0,0 l/m 2,3 km/h (1 Bft) SW 6,6 C 8,3 C 6,1 km/h (2 Bft)
06.11.2013 19:00 8,2 C 90 % 1002,4 hPa 0,0 l/m 2,5 km/h (1 Bft) S-SW 6,6 C 8,2 C 6,4 km/h (2 Bft)
06.11.2013 20:00 8,0 C 91 % 1002,6 hPa 0,0 l/m 2,1 km/h (1 Bft) S-SW 6,6 C 8,0 C 5,2 km/h (1 Bft)
06.11.2013 21:00 7,9 C 91 % 1002,4 hPa 0,0 l/m 1,6 km/h (1 Bft) S-SO 6,6 C 7,9 C 4,0 km/h (1 Bft)
06.11.2013 22:00 8,2 C 92 % 1002,4 hPa 0,4 l/m 3,3 km/h (1 Bft) S-SW 7,0 C 8,2 C 7,4 km/h (2 Bft)
06.11.2013 23:00 8,2 C 93 % 1001,9 hPa 0,6 l/m 3,3 km/h (1 Bft) S-SW 7,2 C 8,2 C 7,1 km/h (2 Bft)
07.11.2013 00:00 8,1 C 94 % 1001,2 hPa 1,6 l/m 2,0 km/h (1 Bft) S-SO 7,2 C 8,1 C 4,9 km/h (1 Bft)
07.11.2013 01:00 8,1 C 95 % 1000,4 hPa 2,8 l/m 1,7 km/h (1 Bft) S-SO 7,3 C 8,1 C 4,9 km/h (1 Bft)
07.11.2013 02:00 8,2 C 95 % 999,7 hPa 2,8 l/m 2,0 km/h (1 Bft) O-SO 7,5 C 8,2 C 5,1 km/h (1 Bft)
07.11.2013 03:00 9,0 C 96 % 998,8 hPa 2,8 l/m 2,5 km/h (1 Bft) SW 8,4 C 9,0 C 7,0 km/h (2 Bft)
07.11.2013 04:00 11,1 C 96 % 998,1 hPa 1,2 l/m 6,3 km/h (2 Bft) SW 10,5 C 10,7 C 14,6 km/h (3 Bft)
07.11.2013 05:00 12,4 C 94 % 998,1 hPa 1,0 l/m 7,5 km/h (2 Bft) S 11,5 C 11,7 C 18,4 km/h (3 Bft)
07.11.2013 06:00 12,7 C 93 % 998,4 hPa 0,4 l/m 7,9 km/h (2 Bft) S-SW 11,6 C 11,7 C 18,8 km/h (3 Bft)
07.11.2013 07:00 13,0 C 92 % 999,0 hPa 0,2 l/m 9,0 km/h (2 Bft) W 11,8 C 11,4 C 21,3 km/h (4 Bft)
07.11.2013 08:00 13,3 C 92 % 999,8 hPa 0,2 l/m 9,6 km/h (2 Bft) W-SW 12,0 C 11,5 C 22,9 km/h (4 Bft)
07.11.2013 09:00 13,3 C 92 % 1001,0 hPa 0,8 l/m 8,3 km/h (2 Bft) NW 12,1 C 12,2 C 21,3 km/h (4 Bft)
07.11.2013 10:00 13,3 C 92 % 1002,3 hPa 0,0 l/m 6,6 km/h (2 Bft) W 12,0 C 12,8 C 16,9 km/h (3 Bft)
07.11.2013 11:00 13,2 C 89 % 1003,6 hPa 0,0 l/m 8,2 km/h (2 Bft) W-NW 11,4 C 12,1 C 18,5 km/h (3 Bft)
07.11.2013 12:00 12,5 C 85 % 1004,6 hPa 0,0 l/m 7,5 km/h (2 Bft) W-NW 10,0 C 11,7 C 17,0 km/h (3 Bft)
07.11.2013 13:00 12,0 C 84 % 1005,5 hPa 0,0 l/m 4,1 km/h (1 Bft) W 9,4 C 12,0 C 10,1 km/h (2 Bft)
07.11.2013 14:00 11,8 C 85 % 1006,1 hPa 0,0 l/m 2,6 km/h (1 Bft) W-NW 9,3 C 11,8 C 7,8 km/h (2 Bft)
07.11.2013 15:00 11,4 C 87 % 1006,8 hPa 0,0 l/m 2,7 km/h (1 Bft) W 9,3 C 11,4 C 7,2 km/h (2 Bft)
07.11.2013 16:00 10,6 C 89 % 1007,3 hPa 0,2 l/m 2,1 km/h (1 Bft) W 8,9 C 10,6 C 6,7 km/h (2 Bft)
07.11.2013 17:00 10,1 C 91 % 1007,9 hPa 0,2 l/m 1,5 km/h (1 Bft) SW 8,7 C 10,1 C 4,5 km/h (1 Bft)
07.11.2013 18:00 9,8 C 92 % 1008,1 hPa 0,2 l/m 0,6 km/h (0 Bft) S 8,5 C 9,8 C 2,9 km/h (1 Bft)
07.11.2013 19:00 9,5 C 93 % 1008,4 hPa 0,0 l/m 0,0 km/h (0 Bft) N 8,3 C 9,5 C 0,0 km/h (0 Bft)
07.11.2013 20:00 9,4 C 93 % 1008,4 hPa 0,0 l/m 0,0 km/h (0 Bft) N 8,3 C 9,4 C 0,0 km/h (0 Bft)
07.11.2013 21:00 9,5 C 93 % 1008,5 hPa 0,0 l/m 1,8 km/h (1 Bft) SW 8,4 C 9,5 C 5,2 km/h (1 Bft)
07.11.2013 22:00 9,3 C 93 % 1008,7 hPa 0,0 l/m 0,6 km/h (0 Bft) S-SW 8,2 C 9,3 C 2,5 km/h (1 Bft)
07.11.2013 23:00 8,8 C 93 % 1008,7 hPa 0,0 l/m 0,0 km/h (0 Bft) N 7,7 C 8,8 C 0,0 km/h (0 Bft)
08.11.2013 00:00 8,6 C 94 % 1008,7 hPa 0,2 l/m 0,0 km/h (0 Bft) N 7,6 C 8,6 C 0,0 km/h (0 Bft)
08.11.2013 01:00 8,2 C 94 % 1008,5 hPa 0,0 l/m 0,0 km/h (0 Bft) N 7,3 C 8,2 C 0,0 km/h (0 Bft)
08.11.2013 02:00 8,1 C 95 % 1008,6 hPa 0,2 l/m 0,0 km/h (0 Bft) N 7,4 C 8,1 C 0,0 km/h (0 Bft)
08.11.2013 03:00 8,2 C 95 % 1008,6 hPa 0,4 l/m 0,0 km/h (0 Bft) N 7,5 C 8,2 C 0,0 km/h (0 Bft)
08.11.2013 04:00 8,2 C 95 % 1008,4 hPa 0,4 l/m 0,0 km/h (0 Bft) N 7,5 C 8,2 C 0,0 km/h (0 Bft)
08.11.2013 05:00 8,3 C 95 % 1008,6 hPa 0,2 l/m 0,0 km/h (0 Bft) N 7,5 C 8,3 C 0,0 km/h (0 Bft)
08.11.2013 06:00 8,1 C 96 % 1008,9 hPa 0,0 l/m 0,0 km/h (0 Bft) N 7,4 C 8,1 C 0,0 km/h (0 Bft)
08.11.2013 07:00 8,2 C 96 % 1009,4 hPa 0,0 l/m 0,0 km/h (0 Bft) N 7,6 C 8,2 C 0,0 km/h (0 Bft)
08.11.2013 08:00 8,4 C 96 % 1009,9 hPa 0,0 l/m 0,3 km/h (0 Bft) S-SW 7,8 C 8,4 C 1,5 km/h (1 Bft)
08.11.2013 09:00 8,6 C 96 % 1010,4 hPa 0,0 l/m 0,4 km/h (0 Bft) W-NW 8,0 C 8,6 C 1,5 km/h (1 Bft)
08.11.2013 10:00 9,3 C 95 % 1010,9 hPa 0,0 l/m 2,0 km/h (1 Bft) SW 8,5 C 9,3 C 5,5 km/h (2 Bft)
08.11.2013 11:00 10,3 C 90 % 1011,0 hPa 0,0 l/m 1,7 km/h (1 Bft) SW 8,7 C 10,3 C 5,3 km/h (1 Bft)
08.11.2013 12:00 10,6 C 87 % 1010,9 hPa 0,0 l/m 1,0 km/h (0 Bft) S-SW 8,6 C 10,6 C 4,0 km/h (1 Bft)
08.11.2013 13:00 10,9 C 85 % 1010,3 hPa 0,0 l/m 1,6 km/h (1 Bft) S-SW 8,5 C 10,9 C 4,7 km/h (1 Bft)
08.11.2013 14:00 10,8 C 86 % 1010,0 hPa 0,0 l/m 1,5 km/h (1 Bft) S-SO 8,5 C 10,8 C 4,1 km/h (1 Bft)
08.11.2013 15:00 10,5 C 87 % 1009,9 hPa 0,0 l/m 0,5 km/h (0 Bft) S-SW 8,4 C 10,5 C 1,9 km/h (1 Bft)
08.11.2013 16:00 9,2 C 90 % 1009,8 hPa 0,0 l/m 0,0 km/h (0 Bft) N 7,6 C 9,2 C 0,3 km/h (0 Bft)
08.11.2013 17:00 8,5 C 91 % 1009,5 hPa 0,0 l/m 0,0 km/h (0 Bft) N 7,2 C 8,5 C 0,0 km/h (0 Bft)
08.11.2013 18:00 8,1 C 92 % 1008,7 hPa 0,0 l/m 0,2 km/h (0 Bft) O 6,9 C 8,1 C 0,9 km/h (0 Bft)
08.11.2013 19:00 8,5 C 92 % 1007,4 hPa 0,0 l/m 1,8 km/h (1 Bft) SO 7,3 C 8,5 C 5,5 km/h (2 Bft)
08.11.2013 20:00 8,4 C 93 % 1006,9 hPa 0,0 l/m 1,6 km/h (1 Bft) S-SO 7,3 C 8,4 C 5,5 km/h (2 Bft)
08.11.2013 21:00 8,2 C 92 % 1006,0 hPa 0,0 l/m 0,7 km/h (0 Bft) O 7,0 C 8,2 C 3,3 km/h (1 Bft)
08.11.2013 22:00 8,5 C 93 % 1003,7 hPa 0,0 l/m 7,2 km/h (2 Bft) O-SO 7,4 C 7,5 C 16,1 km/h (3 Bft)
08.11.2013 23:00 9,0 C 92 % 1003,8 hPa 0,0 l/m 2,0 km/h (1 Bft) S-SO 7,8 C 9,0 C 6,5 km/h (2 Bft)
09.11.2013 00:00 8,8 C 92 % 1003,0 hPa 0,0 l/m 2,2 km/h (1 Bft) O-SO 7,7 C 8,8 C 7,1 km/h (2 Bft)
09.11.2013 01:00 8,9 C 93 % 1002,4 hPa 0,0 l/m 2,4 km/h (1 Bft) S-SO 7,8 C 8,9 C 6,8 km/h (2 Bft)
09.11.2013 02:00 9,3 C 93 % 1002,1 hPa 0,2 l/m 2,8 km/h (1 Bft) S 8,2 C 9,3 C 7,1 km/h (2 Bft)
09.11.2013 03:00 9,7 C 92 % 1001,9 hPa 0,0 l/m 5,4 km/h (2 Bft) S-SW 8,5 C 9,6 C 10,5 km/h (2 Bft)
09.11.2013 04:00 10,0 C 91 % 1001,9 hPa 0,0 l/m 5,0 km/h (1 Bft) S-SW 8,6 C 9,9 C 13,6 km/h (3 Bft)
09.11.2013 05:00 10,1 C 89 % 1002,3 hPa 0,4 l/m 7,2 km/h (2 Bft) S-SW 8,3 C 9,4 C 17,0 km/h (3 Bft)
09.11.2013 06:00 9,6 C 88 % 1003,3 hPa 0,2 l/m 8,9 km/h (2 Bft) S 7,7 C 7,9 C 22,1 km/h (4 Bft)
09.11.2013 07:00 9,3 C 85 % 1004,2 hPa 0,0 l/m 9,8 km/h (2 Bft) SW 6,9 C 6,9 C 23,2 km/h (4 Bft)
09.11.2013 08:00 9,2 C 79 % 1005,5 hPa 0,0 l/m 9,7 km/h (2 Bft) SW 5,8 C 6,9 C 24,1 km/h (4 Bft)
09.11.2013 09:00 9,2 C 77 % 1006,3 hPa 0,0 l/m 10,6 km/h (2 Bft) S-SW 5,4 C 6,4 C 24,8 km/h (4 Bft)
09.11.2013 10:00 9,4 C 75 % 1007,0 hPa 0,0 l/m 10,4 km/h (2 Bft) S-SW 5,1 C 6,7 C 23,2 km/h (4 Bft)
09.11.2013 11:00 9,3 C 73 % 1007,6 hPa 0,0 l/m 10,2 km/h (2 Bft) SW 4,8 C 6,8 C 23,3 km/h (4 Bft)
09.11.2013 12:00 9,8 C 72 % 1007,8 hPa 0,0 l/m 10,5 km/h (2 Bft) W-NW 4,9 C 7,1 C 23,7 km/h (4 Bft)
09.11.2013 13:00 9,8 C 71 % 1007,9 hPa 0,0 l/m 11,1 km/h (2 Bft) W-NW 4,8 C 6,8 C 26,7 km/h (4 Bft)
09.11.2013 14:00 9,9 C 68 % 1008,0 hPa 0,0 l/m 10,1 km/h (2 Bft) W-NW 4,4 C 7,5 C 23,1 km/h (4 Bft)
09.11.2013 15:00 9,3 C 70 % 1008,1 hPa 0,0 l/m 7,1 km/h (2 Bft) SW 4,1 C 8,7 C 18,1 km/h (3 Bft)
09.11.2013 16:00 8,2 C 73 % 1008,2 hPa 0,0 l/m 4,2 km/h (1 Bft) S-SW 3,6 C 8,2 C 10,6 km/h (2 Bft)
09.11.2013 17:00 6,9 C 77 % 1008,1 hPa 0,0 l/m 2,2 km/h (1 Bft) SW 3,2 C 6,9 C 5,3 km/h (1 Bft)
09.11.2013 18:00 5,8 C 83 % 1007,8 hPa 0,0 l/m 2,4 km/h (1 Bft) S-SW 3,1 C 5,8 C 5,6 km/h (2 Bft)
09.11.2013 19:00 6,2 C 83 % 1007,3 hPa 0,0 l/m 3,4 km/h (1 Bft) S 3,5 C 6,2 C 7,9 km/h (2 Bft)
09.11.2013 20:00 5,8 C 85 % 1006,5 hPa 0,0 l/m 1,5 km/h (1 Bft) S 3,5 C 5,8 C 5,1 km/h (1 Bft)
09.11.2013 21:00 5,9 C 85 % 1005,6 hPa 0,0 l/m 3,2 km/h (1 Bft) S-SO 3,6 C 5,9 C 7,5 km/h (2 Bft)
09.11.2013 22:00 6,8 C 83 % 1004,9 hPa 0,0 l/m 5,9 km/h (2 Bft) S 4,1 C 6,6 C 12,2 km/h (2 Bft)
09.11.2013 23:00 6,4 C 87 % 1003,5 hPa 0,2 l/m 2,4 km/h (1 Bft) S-SO 4,3 C 6,4 C 6,2 km/h (2 Bft)
10.11.2013 00:00 6,6 C 86 % 1001,8 hPa 0,0 l/m 4,6 km/h (1 Bft) SO 4,4 C 6,6 C 10,5 km/h (2 Bft)
10.11.2013 01:00 7,2 C 84 % 1000,8 hPa 0,0 l/m 5,7 km/h (2 Bft) S 4,6 C 7,0 C 13,3 km/h (3 Bft)
10.11.2013 02:00 8,3 C 80 % 999,9 hPa 0,2 l/m 10,9 km/h (2 Bft) S 5,0 C 5,2 C 22,4 km/h (4 Bft)
10.11.2013 03:00 7,9 C 85 % 999,3 hPa 0,2 l/m 9,0 km/h (2 Bft) SW 5,5 C 6,0 C 18,9 km/h (3 Bft)
10.11.2013 04:00 7,3 C 89 % 999,4 hPa 0,0 l/m 7,1 km/h (2 Bft) SW 5,7 C 6,6 C 14,9 km/h (3 Bft)
10.11.2013 05:00 6,9 C 87 % 1000,1 hPa 0,0 l/m 6,8 km/h (2 Bft) W-NW 4,9 C 6,2 C 17,4 km/h (3 Bft)
10.11.2013 06:00 5,5 C 86 % 1001,0 hPa 0,0 l/m 6,6 km/h (2 Bft) W-NW 3,3 C 4,8 C 16,2 km/h (3 Bft)
10.11.2013 07:00 5,1 C 87 % 1001,4 hPa 0,0 l/m 3,7 km/h (1 Bft) W 3,0 C 5,1 C 10,2 km/h (2 Bft)
10.11.2013 08:00 4,9 C 89 % 1002,1 hPa 0,0 l/m 2,6 km/h (1 Bft) W 3,2 C 4,9 C 7,1 km/h (2 Bft)
10.11.2013 09:00 5,0 C 89 % 1003,0 hPa 0,0 l/m 3,5 km/h (1 Bft) W-NW 3,3 C 5,0 C 8,6 km/h (2 Bft)
10.11.2013 10:00 5,2 C 90 % 1003,8 hPa 0,0 l/m 4,0 km/h (1 Bft) W 3,6 C 5,2 C 10,2 km/h (2 Bft)
10.11.2013 11:00 5,6 C 88 % 1004,3 hPa 0,0 l/m 4,3 km/h (1 Bft) W 3,7 C 5,6 C 10,2 km/h (2 Bft)
10.11.2013 12:00 6,2 C 85 % 1004,8 hPa 0,0 l/m 5,3 km/h (1 Bft) W-NW 3,9 C 6,2 C 12,1 km/h (2 Bft)
10.11.2013 13:00 7,1 C 83 % 1005,6 hPa 0,0 l/m 4,7 km/h (1 Bft) W 4,4 C 7,1 C 11,2 km/h (2 Bft)
10.11.2013 14:00 7,5 C 80 % 1006,4 hPa 0,0 l/m 4,8 km/h (1 Bft) W 4,4 C 7,6 C 11,3 km/h (2 Bft)
10.11.2013 15:00 6,9 C 82 % 1007,8 hPa 0,0 l/m 4,0 km/h (1 Bft) W-NW 4,0 C 6,9 C 9,4 km/h (2 Bft)
10.11.2013 16:00 6,0 C 85 % 1009,2 hPa 0,0 l/m 2,3 km/h (1 Bft) W 3,8 C 6,0 C 5,9 km/h (2 Bft)
10.11.2013 17:00 5,0 C 89 % 1010,7 hPa 0,0 l/m 1,5 km/h (1 Bft) SW 3,3 C 5,0 C 4,8 km/h (1 Bft)
10.11.2013 18:00 4,6 C 90 % 1012,1 hPa 0,0 l/m 2,1 km/h (1 Bft) W-SW 3,2 C 4,6 C 6,3 km/h (2 Bft)
10.11.2013 19:00 5,1 C 90 % 1013,0 hPa 0,0 l/m 3,7 km/h (1 Bft) W 3,6 C 5,1 C 10,1 km/h (2 Bft)
10.11.2013 20:00 5,2 C 89 % 1014,0 hPa 0,0 l/m 4,1 km/h (1 Bft) W 3,5 C 5,2 C 12,5 km/h (2 Bft)
10.11.2013 21:00 5,0 C 90 % 1015,0 hPa 0,0 l/m 3,7 km/h (1 Bft) W-NW 3,4 C 5,0 C 10,8 km/h (2 Bft)
10.11.2013 22:00 5,1 C 91 % 1016,4 hPa 0,0 l/m 4,5 km/h (1 Bft) W-NW 3,8 C 5,1 C 12,1 km/h (2 Bft)
10.11.2013 23:00 5,0 C 91 % 1017,5 hPa 0,0 l/m 4,9 km/h (1 Bft) W-NW 3,7 C 5,0 C 12,4 km/h (2 Bft)
Min-Datum _ 10.11.13 09.11.13 04.11.13 - 07.11.13 - 09.11.13 10.11.13 07.11.13
_ Min-Zeit 18:25 14:30 16:35 - 16:55 - 18:00 06:20 16:55
Minimum _ 4,5 C 67 % 981,5 hPa - 0,0 km/h (0 Bft) - 2,9 C 2,0 C 0,0 km/h (0 Bft)
Max-Datum _ 07.11.13 07.11.13 10.11.13 07.11.13 04.11.13 - 07.11.13 07.11.13 09.11.13
_ Max-Zeit 11:15 03:15 23:55 02:45 14:00 - 09:10 11:15 08:35
Maximum _ 13,7 C 96 % 1018,1 hPa 2,8 l/m 19,5 km/h
S-SW (3 Bft)
- 12,3 C 13,7 C 40,2 km/h
SW (6 Bft)
Durchschnitt _ 8,2 C 88 % 1000,8 hPa #34,6 l/m 4,9 km/h (1 Bft) S-SW 6,3 C 7,6 C 11,6 km/h (2 Bft)